Latest Weather Observations for Wadeye (Port Keats)

IDD60801

Issued at 2:05 pm CST Sunday 23 November 2014 (issued every 30 minutes, with the page automatically refreshed every 10 minutes)

About weather observations | Map of weather stations | Latest weather observations for NT | Other Formats
Station Details ID: 014948 Name: PORT KEATS AIRPORT Lat: -14.25 Lon: 129.53 Height: 28.0 m
Data from the previous 72 hours. | See also: Recent months at Wadeye (Port Keats)
Date/Time
CST
Temp
°C
App
Temp
°C
Dew
Point
Rel
Hum
%
Delta-T
°C
Wind Press
QNH
hPa
Press
MSL
hPa
Rain
since 9 am
mm
Dir
 
Spd
km/h
Gust
km/h
Spd
kts
Gust
kts
23/02:00pm 35.4 37.1 22.4 47 9.0 NW 17 26 9 14 1008.7 1008.5 0.0
23/01:30pm 35.3 36.2 21.9 45 9.2 N 20 28 11 15 1009.0 1008.8 0.0
23/01:00pm 35.3 37.0 21.6 45 9.3 N 15 22 8 12 1009.4 1009.2 0.0
23/12:30pm 35.2 37.0 21.1 43 9.6 N 13 20 7 11 1009.9 1009.7 0.0
23/12:00pm 34.7 35.7 21.0 44 9.3 N 17 24 9 13 1010.2 1010.0 0.0
23/11:30am 34.7 36.3 21.4 46 9.0 N 15 24 8 13 1010.8 1010.6 0.0
23/11:00am 34.2 36.1 21.3 47 8.7 NW 13 20 7 11 1011.2 1011.0 0.0
23/10:30am 33.6 35.5 21.4 48 8.3 NW 13 19 7 10 1011.4 1011.2 0.0
23/10:00am 33.8 35.8 21.6 49 8.3 N 13 20 7 11 1011.4 1011.2 0.0
23/09:30am 33.3 36.4 22.1 52 7.7 N 9 13 5 7 1011.4 1011.2 0.0
23/09:00am 32.4 35.1 21.3 52 7.5 NNW 9 19 5 10 1011.2 1011.0 0.0
23/08:30am 31.8 33.8 21.6 54 6.9 NNW 13 17 7 9 1011.1 1010.9 0.0
23/08:00am 30.9 34.4 23.5 64 5.1 NW 11 15 6 8 1010.7 1010.5 0.0
23/07:30am 29.7 34.8 24.6 74 3.6 W 6 9 3 5 1010.6 1010.4 0.0
23/07:00am 28.9 35.4 25.1 80 2.7 CALM 0 0 0 0 1010.2 1010.0 0.0
23/06:30am 28.1 34.5 24.9 83 2.2 CALM 0 0 0 0 1009.9 1009.7 0.0
23/06:00am 28.0 33.5 24.6 82 2.4 ENE 4 7 2 4 1009.7 1009.5 0.0
23/05:30am 28.1 34.1 24.3 80 2.6 CALM 0 0 0 0 1009.3 1009.1 0.0
23/05:00am 28.4 34.5 24.4 79 2.8 CALM 0 6 0 3 1009.1 1008.9 0.0
23/04:30am 28.7 34.8 24.5 78 2.9 CALM 0 0 0 0 1009.2 1009.0 0.0
23/04:00am 28.5 34.5 24.3 78 2.9 CALM 0 0 0 0 1009.0 1008.8 0.0
23/03:30am 28.9 34.9 24.2 76 3.3 CALM 0 0 0 0 1008.9 1008.7 0.0
23/03:00am 29.1 34.0 24.4 76 3.3 W 6 7 3 4 1009.0 1008.8 0.0
23/02:30am 29.2 34.2 24.5 76 3.3 W 6 9 3 5 1009.2 1009.0 0.0
23/02:00am 29.3 34.1 24.4 75 3.4 W 7 13 4 7 1009.5 1009.3 0.0
23/01:30am 29.4 34.2 24.5 75 3.4 WSW 7 11 4 6 1010.1 1009.9 0.0
23/01:00am 29.4 34.2 24.5 75 3.4 W 7 9 4 5 1010.5 1010.3 0.0
23/12:30am 29.5 34.6 24.6 75 3.4 WSW 6 9 3 5 1010.6 1010.4 0.0
23/12:00am 29.8 34.9 24.7 74 3.6 W 6 7 3 4 1010.8 1010.6 0.0
 
Date/Time
CST
Temp
°C
App
Temp
°C
Dew
Point
Rel
Hum
%
Delta-T
°C
Wind Press
QNH
hPa
Press
MSL
hPa
Rain
since 9 am
mm
Dir
 
Spd
km/h
Gust
km/h
Spd
kts
Gust
kts
22/11:30pm 29.9 34.9 24.8 74 3.6 SW 7 9 4 5 1010.9 1010.7 0.0
22/11:00pm 30.1 35.0 24.7 73 3.8 WNW 7 11 4 6 1010.5 1010.3 0.0
22/10:30pm 30.2 34.7 24.6 72 3.9 NW 9 13 5 7 1010.4 1010.2 0.0
22/10:00pm 30.2 34.7 24.6 72 3.9 NW 9 13 5 7 1010.2 1010.0 0.0
22/09:30pm 30.3 35.1 24.4 70 4.1 WNW 7 11 4 6 1010.0 1009.8 0.0
22/09:00pm 30.2 34.4 24.1 70 4.2 WNW 9 15 5 8 1009.7 1009.5 0.0
22/08:30pm 30.0 33.1 21.4 60 5.8 W 7 11 4 6 1009.2 1009.0 0.0
22/08:00pm 30.2 32.4 19.6 53 6.9 NW 7 9 4 5 1008.7 1008.5 0.0
22/07:30pm 30.3 32.4 19.0 50 7.4 W 6 7 3 4 1008.5 1008.3 0.0
22/07:00pm 30.6 32.4 18.7 49 7.7 W 7 11 4 6 1008.5 1008.3 0.0
22/06:30pm 31.3 32.2 17.6 44 8.8 ENE 9 13 5 7 1008.6 1008.4 0.0
22/06:00pm 31.4 30.8 18.4 46 8.4 SE 19 28 10 15 1008.8 1008.6 0.0
22/05:30pm 35.0 36.5 19.0 39 10.6 E 9 24 5 13 1009.1 1008.9 0.0
22/05:00pm 34.1 35.1 17.8 38 10.5 NNE 9 19 5 10 1007.6 1007.4 0.0
22/04:30pm 34.0 32.9 17.2 36 10.8 N 19 24 10 13 1006.7 1006.4 0.0
22/04:00pm 33.3 32.3 17.9 40 9.9 N 20 32 11 17 1007.8 1007.6 0.0
22/03:30pm 34.9 35.2 20.5 43 9.7 N 19 26 10 14 1008.1 1007.9 0.0
22/03:00pm 35.4 36.2 21.3 44 9.6 NW 19 28 10 15 1008.1 1007.9 0.0
22/02:30pm 34.8 35.4 21.1 44 9.3 NNW 19 26 10 14 1008.3 1008.1 0.0
22/02:00pm 34.7 35.0 20.3 43 9.6 NW 19 28 10 15 1008.7 1008.5 0.0
22/01:30pm 35.0 35.4 19.8 41 10.1 NW 17 26 9 14 1009.5 1009.3 0.0
22/01:00pm 36.1 37.0 20.8 41 10.3 NW 17 26 9 14 1009.7 1009.5 0.0
22/12:30pm 35.5 36.3 20.6 41 10.0 NW 17 22 9 12 1010.2 1010.0 0.0
22/12:00pm 34.9 35.6 20.5 43 9.7 NNW 17 26 9 14 1010.4 1010.2 0.0
22/11:30am 35.1 36.5 21.0 43 9.5 NW 15 22 8 12 1010.9 1010.7 0.0
22/11:00am 34.7 36.5 20.3 43 9.6 NW 11 15 6 8 1011.0 1010.8 0.0
22/10:30am 34.4 36.2 20.4 44 9.4 WNW 11 17 6 9 1011.1 1010.9 0.0
22/10:00am 33.9 36.8 21.0 47 8.7 WNW 7 11 4 6 1011.6 1011.4 0.0
22/09:30am 32.9 35.6 21.4 50 7.8 SW 9 13 5 7 1011.6 1011.4 0.0
22/09:00am 32.0 34.3 22.1 55 6.7 WSW 13 19 7 10 1011.5 1011.3 0.0
22/08:30am 31.4 34.5 23.5 63 5.5 W 13 17 7 9 1011.2 1011.0 0.0
22/08:00am 30.7 34.8 24.6 70 4.3 SW 11 15 6 8 1011.0 1010.8 0.0
22/07:30am 29.3 35.6 24.8 77 3.2 CALM 0 7 0 4 1010.9 1010.7 0.0
22/07:00am 28.8 35.1 24.8 79 2.8 CALM 0 4 0 2 1010.4 1010.2 0.0
22/06:30am 28.3 34.6 24.7 81 2.5 CALM 0 6 0 3 1009.9 1009.7 0.0
22/06:00am 28.2 33.7 24.6 81 2.5 SW 4 9 2 5 1009.6 1009.4 0.0
22/05:30am 28.3 33.3 24.5 80 2.6 SW 6 7 3 4 1009.3 1009.1 0.0
22/05:00am 28.5 33.9 24.5 79 2.8 WSW 4 6 2 3 1009.2 1009.0 0.0
22/04:30am 28.9 33.9 24.5 77 3.1 W 6 7 3 4 1009.1 1008.9 0.0
22/04:00am 29.1 34.2 24.6 76 3.1 W 6 9 3 5 1008.8 1008.6 0.0
22/03:30am 29.2 34.1 24.7 77 3.2 W 7 13 4 7 1008.7 1008.5 0.0
22/03:00am 29.3 33.9 24.8 77 3.2 W 9 15 5 8 1008.4 1008.2 0.0
22/02:30am 29.3 34.1 25.1 78 3.0 WNW 9 17 5 9 1008.3 1008.1 0.0
22/02:00am 29.3 34.1 25.1 78 3.0 WNW 9 15 5 8 1008.5 1008.3 0.0
22/01:30am 29.1 34.3 25.1 79 2.8 W 7 13 4 7 1008.8 1008.6 0.0
22/01:00am 28.9 34.0 24.9 79 2.8 W 7 11 4 6 1009.0 1008.8 0.0
22/12:30am 29.3 34.2 24.6 76 3.3 WNW 7 11 4 6 1009.6 1009.4 0.0
22/12:00am 29.9 34.9 24.8 74 3.6 N 7 9 4 5 1010.4 1010.2 0.0
 
Date/Time
CST
Temp
°C
App
Temp
°C
Dew
Point
Rel
Hum
%
Delta-T
°C
Wind Press
QNH
hPa
Press
MSL
hPa
Rain
since 9 am
mm
Dir
 
Spd
km/h
Gust
km/h
Spd
kts
Gust
kts
21/11:30pm 29.5 35.1 24.8 76 3.3 WNW 4 9 2 5 1010.2 1010.0 0.0
21/11:00pm 29.6 34.7 24.7 75 3.4 W 6 9 3 5 1010.3 1010.1 0.0
21/10:30pm 30.1 34.7 24.7 73 3.8 N 9 11 5 6 1010.4 1010.2 0.0
21/10:00pm 30.2 34.3 24.6 72 3.9 NNW 11 15 6 8 1009.9 1009.7 0.0
21/09:30pm 30.2 34.6 24.4 71 4.1 NNW 9 15 5 8 1009.2 1009.0 0.0
21/09:00pm 30.3 34.2 24.2 70 4.3 NW 11 17 6 9 1008.7 1008.5 0.0
21/08:30pm 30.4 33.8 24.1 69 4.4 NNW 13 17 7 9 1008.3 1008.1 0.0
21/08:00pm 30.5 34.6 23.9 68 4.6 NW 9 15 5 8 1008.3 1008.1 0.0
21/07:30pm 30.7 34.0 23.9 67 4.7 NW 13 19 7 10 1008.1 1007.9 0.0
21/07:00pm 30.8 33.3 23.2 64 5.2 NNW 15 20 8 11 1008.0 1007.8 0.0
21/06:30pm 31.4 33.9 23.2 61 5.7 NW 15 20 8 11 1007.7 1007.5 0.0
21/06:00pm 31.9 33.9 22.9 59 6.2 NW 17 24 9 13 1007.3 1007.1 0.0
21/05:30pm 32.8 33.9 22.3 54 7.2 NW 20 30 11 16 1007.2 1007.0 0.0
21/05:00pm 33.2 33.5 20.7 47 8.4 NW 20 30 11 16 1007.0 1006.8 0.0
21/04:30pm 33.8 34.7 21.9 49 8.1 NW 20 26 11 14 1007.2 1007.0 0.0
21/04:00pm 34.2 34.9 21.6 47 8.6 NNW 20 30 11 16 1007.3 1007.1 0.0
21/03:30pm 34.4 34.9 21.1 45 9.0 NW 20 30 11 16 1007.7 1007.5 0.0
21/03:00pm 34.8 35.3 21.1 44 9.3 NW 20 30 11 16 1008.2 1008.0 0.0
21/02:30pm 34.6 35.5 20.9 44 9.3 NW 17 26 9 14 1008.4 1008.2 0.0
21/02:00pm 35.0 35.9 20.9 43 9.5 NW 17 24 9 13 1008.6 1008.4 0.0
21/01:30pm 35.0 36.3 21.6 45 9.1 NW 17 26 9 14 1009.1 1008.9 0.0
21/01:00pm 35.1 36.8 21.0 43 9.5 NW 13 20 7 11 1009.6 1009.4 0.0
21/12:30pm 35.3 36.2 20.8 42 9.8 N 17 22 9 12 1010.1 1009.9 0.0
21/12:00pm 34.8 35.8 21.1 44 9.3 NW 17 24 9 13 1010.5 1010.3 0.0
21/11:30am 34.8 36.8 21.5 46 9.1 NW 13 20 7 11 1011.0 1010.8 0.0
21/11:00am 33.5 35.8 21.3 48 8.2 NW 11 19 6 10 1011.4 1011.2 0.0
21/10:30am 33.0 35.2 21.2 50 8.0 NNW 11 19 6 10 1011.6 1011.4 0.0
21/10:00am 33.0 35.9 22.4 53 7.3 NW 11 19 6 10 1011.7 1011.5 0.0
21/09:30am 32.5 34.8 21.4 52 7.5 NNW 11 17 6 9 1011.6 1011.4 0.0
21/09:00am 31.5 34.2 22.2 57 6.3 WNW 11 17 6 9 1011.6 1011.4 0.0
21/08:30am 31.1 33.7 22.7 61 5.8 W 13 20 7 11 1011.3 1011.1 0.0
21/08:00am 30.2 35.1 23.6 67 4.6 NNW 4 11 2 6 1011.2 1011.0 0.0
21/07:30am 29.2 34.4 23.6 72 3.9 ENE 2 7 1 4 1010.9 1010.7 0.0
21/07:00am 27.9 33.6 23.7 78 2.9 CALM 0 0 0 0 1010.5 1010.3 0.0
21/06:30am 26.9 32.5 23.6 82 2.3 CALM 0 0 0 0 1010.1 1009.9 0.0
21/06:00am 27.1 32.7 23.6 81 2.4 CALM 0 0 0 0 1009.7 1009.5 0.0
21/05:30am 27.2 32.7 23.4 80 2.6 CALM 0 0 0 0 1009.5 1009.3 0.0
21/05:00am 27.4 32.9 23.4 79 2.7 CALM 0 0 0 0 1009.4 1009.2 0.0
21/04:30am 27.7 33.0 23.1 76 3.1 CALM 0 0 0 0 1009.2 1009.0 0.0
21/04:00am 27.8 33.2 23.2 76 3.1 CALM 0 6 0 3 1008.9 1008.7 0.0
21/03:30am 27.7 32.9 22.9 75 3.3 CALM 0 6 0 3 1008.8 1008.6 0.0
21/03:00am 28.0 32.0 22.7 73 3.6 WSW 6 9 3 5 1008.9 1008.7 0.0
21/02:30am 28.5 32.4 22.5 70 4.1 W 6 7 3 4 1008.9 1008.7 0.0
21/02:00am 28.8 32.5 22.3 68 4.4 WNW 6 7 3 4 1008.9 1008.7 0.0
21/01:30am 29.1 32.7 22.3 66 4.6 NW 7 11 4 6 1009.1 1008.9 0.0
21/01:00am 29.3 33.1 22.8 68 4.4 NW 7 13 4 7 1009.3 1009.1 0.0
21/12:30am 29.4 33.0 23.1 69 4.3 WNW 9 13 5 7 1009.5 1009.3 0.0
21/12:00am 29.5 33.2 23.2 69 4.3 NW 9 15 5 8 1009.6 1009.4 0.0
 
Date/Time
CST
Temp
°C
App
Temp
°C
Dew
Point
Rel
Hum
%
Delta-T
°C
Wind Press
QNH
hPa
Press
MSL
hPa
Rain
since 9 am
mm
Dir
 
Spd
km/h
Gust
km/h
Spd
kts
Gust
kts
20/11:30pm 29.7 33.5 23.4 69 4.3 WNW 9 15 5 8 1009.8 1009.6 0.0
20/11:00pm 29.8 33.3 23.5 69 4.3 WNW 11 17 6 9 1009.8 1009.6 0.0
20/10:30pm 29.8 33.6 23.5 69 4.3 WNW 9 15 5 8 1009.8 1009.6 0.0
20/10:00pm 29.9 33.6 23.3 67 4.5 NW 9 13 5 7 1009.6 1009.4 0.0
20/09:30pm 29.9 33.4 22.9 66 4.8 NW 9 13 5 7 1009.3 1009.1 0.0
20/09:00pm 30.2 33.7 22.9 65 5.0 NW 9 15 5 8 1008.7 1008.5 0.0
20/08:30pm 30.4 33.4 22.6 63 5.3 NNW 11 17 6 9 1008.4 1008.2 0.0
20/08:00pm 30.6 32.6 22.2 61 5.7 NW 15 19 8 10 1008.2 1008.0 0.0
20/07:30pm 30.7 32.7 22.3 61 5.7 NNW 15 22 8 12 1008.1 1007.9 0.0
20/07:00pm 31.1 32.8 21.6 57 6.4 NW 15 19 8 10 1008.0 1007.8 0.0
20/06:30pm 31.7 33.5 21.8 55 6.7 NW 15 22 8 12 1007.6 1007.4 0.0
20/06:00pm 33.1 33.1 18.1 41 9.7 NW 15 20 8 11 1007.2 1007.0 0.0
20/05:30pm 33.6 32.9 16.5 36 10.9 NW 15 20 8 11 1007.1 1006.9 0.0
20/05:00pm 33.5 32.2 16.8 36 10.6 NW 19 26 10 14 1007.1 1006.9 0.0
20/04:30pm 33.5 33.6 19.2 43 9.4 WNW 17 22 9 12 1007.2 1007.0 0.0
20/04:00pm 33.4 33.6 20.5 46 8.6 NNW 20 28 11 15 1007.7 1007.5 0.0
20/03:30pm 31.5 33.5 22.2 57 6.3 NW 15 20 8 11 1008.0 1007.8 0.0
20/03:00pm 31.1 32.6 21.3 56 6.6 NW 15 24 8 13 1008.2 1008.0 0.0
20/02:30pm 31.8 33.8 21.6 54 6.9 NW 13 20 7 11 1009.0 1008.8 0.0

Other Formats:

Comma delimited format used in spreadsheet applications
http://www.bom.gov.au/fwo/IDD60801/IDD60801.95111.axf

JavaScript Object Notation format (JSON) in row-major order
http://www.bom.gov.au/fwo/IDD60801/IDD60801.95111.json